createdAt,value
2023-01-17T00:02:13.932Z,97149.38
2023-01-17T00:04:59.588Z,97152.03
2023-01-17T00:07:45.869Z,97148.97
2023-01-17T00:10:16.948Z,97162.59
2023-01-17T00:12:50.473Z,97156.72
2023-01-17T00:15:19.785Z,97148.56
2023-01-17T00:17:48.709Z,97152.63
2023-01-17T00:20:36.239Z,97148.78
2023-01-17T00:23:25.208Z,97152.84
2023-01-17T00:26:05.877Z,97153.84
2023-01-17T00:28:37.115Z,97157.91
2023-01-17T00:31:06.525Z,97156.50
2023-01-17T00:33:33.947Z,97163.63
2023-01-17T00:36:02.508Z,97165.66
2023-01-17T00:38:31.855Z,97162.38
2023-01-17T00:41:03.889Z,97157.91
2023-01-17T00:43:50.044Z,97172.59
2023-01-17T00:46:37.652Z,97172.19
2023-01-17T00:49:23.876Z,97178.25
2023-01-17T00:52:10.946Z,97177.03
2023-01-17T00:54:56.356Z,97177.88
2023-01-17T00:57:42.202Z,97182.75
2023-01-17T01:00:29.844Z,97178.88
2023-01-17T01:03:16.918Z,97189.22
2023-01-17T01:06:02.470Z,97183.13
2023-01-17T01:08:49.315Z,97189.44
2023-01-17T01:11:38.953Z,97192.28
2023-01-17T01:14:27.003Z,97196.34
2023-01-17T01:17:12.478Z,97205.50
2023-01-17T01:19:59.598Z,97207.13
2023-01-17T01:22:45.059Z,97200.59
2023-01-17T01:25:30.640Z,97218.06
2023-01-17T01:28:23.637Z,97220.66
2023-01-17T01:31:09.012Z,97211.53
2023-01-17T01:33:37.147Z,97209.09
2023-01-17T01:36:09.813Z,97218.41
2023-01-17T01:38:38.601Z,97224.53
2023-01-17T01:41:07.550Z,97214.81
2023-01-17T01:43:46.749Z,97231.06
2023-01-17T01:46:21.295Z,97211.56
2023-01-17T01:48:54.720Z,97211.97
2023-01-17T01:51:30.459Z,97227.00
2023-01-17T01:54:07.820Z,97221.75
2023-01-17T01:56:37.089Z,97225.63
2023-01-17T01:59:10.669Z,97224.56
2023-01-17T02:01:38.900Z,97230.50
2023-01-17T02:04:09.832Z,97234.78
2023-01-17T02:06:44.997Z,97227.63
2023-01-17T02:09:16.030Z,97235.56
2023-01-17T02:11:46.389Z,97229.50
2023-01-17T02:14:17.095Z,97232.34
2023-01-17T02:17:06.143Z,97243.31
2023-01-17T02:20:20.422Z,97257.75
2023-01-17T02:23:28.886Z,97257.94
2023-01-17T02:27:01.654Z,97256.13
2023-01-17T02:30:20.834Z,97255.50
2023-01-17T02:33:23.309Z,97259.97
2023-01-17T02:36:05.097Z,97278.25
2023-01-17T02:38:44.462Z,97271.72
2023-01-17T02:41:22.922Z,97278.44
2023-01-17T02:43:53.314Z,97289.38
2023-01-17T02:46:21.684Z,97282.09
2023-01-17T02:48:52.687Z,97293.22
2023-01-17T02:51:52.236Z,97289.78
2023-01-17T02:55:06.413Z,97293.44
2023-01-17T02:57:59.366Z,97305.03
2023-01-17T03:00:42.299Z,97308.66
2023-01-17T03:03:27.060Z,97319.06
2023-01-17T03:06:11.451Z,97320.22
2023-01-17T03:08:44.318Z,97326.56
2023-01-17T03:11:14.735Z,97327.75
2023-01-17T03:13:42.815Z,97333.06
2023-01-17T03:16:18.316Z,97342.41
2023-01-17T03:18:46.662Z,97353.78
2023-01-17T03:21:16.055Z,97353.59
2023-01-17T03:23:44.137Z,97352.16
2023-01-17T03:26:12.216Z,97354.59
2023-01-17T03:28:40.219Z,97358.88
2023-01-17T03:31:08.493Z,97361.50
2023-01-17T03:33:36.755Z,97355.00
2023-01-17T03:36:05.704Z,97359.69
2023-01-17T03:38:37.184Z,97368.22
2023-01-17T03:41:05.674Z,97359.28
2023-01-17T03:43:33.786Z,97362.75
2023-01-17T03:46:07.008Z,97363.75
2023-01-17T03:48:35.515Z,97365.59
2023-01-17T03:51:03.606Z,97377.41
2023-01-17T03:53:31.614Z,97376.59
2023-01-17T03:56:00.996Z,97374.59
2023-01-17T03:58:29.040Z,97388.81
2023-01-17T04:00:57.184Z,97388.81
2023-01-17T04:03:25.321Z,97394.50
2023-01-17T04:05:53.343Z,97390.03
2023-01-17T04:08:21.459Z,97395.75
2023-01-17T04:10:49.520Z,97398.59
2023-01-17T04:13:18.968Z,97395.31
2023-01-17T04:15:50.064Z,97398.16
2023-01-17T04:18:20.111Z,97398.97
2023-01-17T04:20:48.369Z,97400.63
2023-01-17T04:23:16.382Z,97401.44
2023-01-17T04:25:44.609Z,97398.19
2023-01-17T04:28:13.302Z,97407.97
2023-01-17T04:30:43.039Z,97411.63
2023-01-17T04:33:11.093Z,97412.03
2023-01-17T04:35:39.148Z,97415.91
2023-01-17T04:38:07.190Z,97420.38
2023-01-17T04:40:35.236Z,97423.63
2023-01-17T04:43:03.275Z,97422.63
2023-01-17T04:45:31.306Z,97420.59
2023-01-17T04:48:06.141Z,97421.63
2023-01-17T04:50:34.743Z,97421.78
2023-01-17T04:53:02.750Z,97427.47
2023-01-17T04:55:30.886Z,97434.97
2023-01-17T04:57:58.947Z,97439.25
2023-01-17T05:00:27.103Z,97435.59
2023-01-17T05:02:55.225Z,97439.22
2023-01-17T05:05:24.698Z,97436.75
2023-01-17T05:07:56.553Z,97455.25
2023-01-17T05:10:25.453Z,97448.94
2023-01-17T05:12:56.132Z,97455.38
2023-01-17T05:15:25.410Z,97464.53
2023-01-17T05:17:54.864Z,97468.38
2023-01-17T05:20:27.020Z,97472.00
2023-01-17T05:22:56.416Z,97480.59
2023-01-17T05:25:24.994Z,97486.22
2023-01-17T05:27:53.697Z,97501.63
2023-01-17T05:30:22.901Z,97516.44
2023-01-17T05:32:52.930Z,97508.28
2023-01-17T05:35:25.858Z,97522.72
2023-01-17T05:37:54.248Z,97533.22
2023-01-17T05:40:24.741Z,97535.19
2023-01-17T05:42:56.600Z,97544.47
2023-01-17T05:45:28.038Z,97553.16
2023-01-17T05:47:58.333Z,97567.28
2023-01-17T05:50:30.223Z,97584.78
2023-01-17T05:53:01.283Z,97578.69
2023-01-17T05:55:31.567Z,97587.16
2023-01-17T05:58:00.049Z,97592.09
2023-01-17T06:00:28.884Z,97592.44
2023-01-17T06:02:58.964Z,97593.84
2023-01-17T06:05:29.635Z,97607.66
2023-01-17T06:07:57.848Z,97612.31
2023-01-17T06:10:26.933Z,97625.13
2023-01-17T06:13:03.728Z,97624.50
2023-01-17T06:15:32.100Z,97636.03
2023-01-17T06:18:05.164Z,97638.44
2023-01-17T06:20:35.009Z,97644.13
2023-01-17T06:23:04.325Z,97640.41
2023-01-17T06:25:37.642Z,97647.22
2023-01-17T06:28:06.256Z,97646.56
2023-01-17T06:30:34.526Z,97654.94
2023-01-17T06:33:03.228Z,97667.00
2023-01-17T06:35:32.063Z,97669.84
2023-01-17T06:38:01.600Z,97679.69
2023-01-17T06:40:31.168Z,97688.41
2023-01-17T06:43:02.056Z,97695.13
2023-01-17T06:45:30.952Z,97703.34
2023-01-17T06:47:59.814Z,97706.50
2023-01-17T06:50:28.154Z,97715.16
2023-01-17T06:52:58.116Z,97712.41
2023-01-17T06:55:29.239Z,97731.34
2023-01-17T06:57:59.407Z,97731.22
2023-01-17T07:00:29.390Z,97742.44
2023-01-17T07:02:57.685Z,97753.63
2023-01-17T07:05:25.975Z,97755.06
2023-01-17T07:07:54.114Z,97757.25
2023-01-17T07:10:23.569Z,97764.41
2023-01-17T07:12:52.932Z,97780.88
2023-01-17T07:15:20.964Z,97776.59
2023-01-17T07:17:49.023Z,97791.06
2023-01-17T07:20:17.507Z,97781.16
2023-01-17T07:22:46.251Z,97784.81
2023-01-17T07:25:14.361Z,97801.91
2023-01-17T07:27:42.392Z,97800.19
2023-01-17T07:30:14.241Z,97803.78
2023-01-17T07:32:42.421Z,97795.06
2023-01-17T07:35:10.995Z,97805.78
2023-01-17T07:37:39.906Z,97804.94
2023-01-17T07:40:09.774Z,97811.06
2023-01-17T07:42:37.792Z,97809.06
2023-01-17T07:45:07.781Z,97809.88
2023-01-17T07:47:37.186Z,97807.44
2023-01-17T07:50:06.505Z,97812.59
2023-01-17T07:52:34.563Z,97814.41
2023-01-17T07:55:02.641Z,97817.84
2023-01-17T07:57:32.493Z,97811.41
2023-01-17T08:00:00.535Z,97812.03
2023-01-17T08:02:28.602Z,97815.84
2023-01-17T08:04:58.000Z,97825.22
2023-01-17T08:07:26.096Z,97827.03
2023-01-17T08:09:55.404Z,97829.03
2023-01-17T08:12:23.443Z,97839.91
2023-01-17T08:14:51.451Z,97835.41
2023-01-17T08:17:20.407Z,97845.66
2023-01-17T08:19:51.190Z,97847.63
2023-01-17T08:22:20.692Z,97848.28
2023-01-17T08:24:48.935Z,97847.25
2023-01-17T08:27:16.986Z,97859.47
2023-01-17T08:29:48.216Z,97869.31
2023-01-17T08:32:16.619Z,97876.41
2023-01-17T08:34:45.048Z,97875.88
2023-01-17T08:37:13.037Z,97884.16
2023-01-17T08:39:42.526Z,97888.44
2023-01-17T08:42:10.744Z,97882.47
2023-01-17T08:44:39.725Z,97891.00
2023-01-17T08:47:07.916Z,97890.19
2023-01-17T08:49:35.982Z,97892.47
2023-01-17T08:52:05.136Z,97901.69
2023-01-17T08:54:33.473Z,97906.13
2023-01-17T08:57:04.769Z,97904.97
2023-01-17T08:59:32.800Z,97909.91
2023-01-17T09:02:06.613Z,97920.94
2023-01-17T09:04:35.177Z,97916.47
2023-01-17T09:07:03.238Z,97926.22
2023-01-17T09:09:31.241Z,97924.03
2023-01-17T09:11:59.337Z,97932.13
2023-01-17T09:14:28.743Z,97931.13
2023-01-17T09:16:56.851Z,97934.41
2023-01-17T09:19:24.906Z,97932.78
2023-01-17T09:21:52.914Z,97932.13
2023-01-17T09:24:21.042Z,97932.00
2023-01-17T09:26:49.126Z,97934.81
2023-01-17T09:29:18.715Z,97937.75
2023-01-17T09:31:48.186Z,97931.47
2023-01-17T09:34:18.499Z,97934.75
2023-01-17T09:36:46.769Z,97944.81
2023-01-17T09:39:15.532Z,97941.34
2023-01-17T09:41:53.871Z,97947.09
2023-01-17T09:44:30.647Z,97957.94
2023-01-17T09:47:05.822Z,97957.13
2023-01-17T09:49:39.578Z,97960.25
2023-01-17T09:52:13.010Z,97971.44
2023-01-17T09:54:46.091Z,97965.16
2023-01-17T09:57:39.668Z,97969.25
2023-01-17T10:00:26.534Z,97971.56
2023-01-17T10:03:28.684Z,97980.78
2023-01-17T10:06:23.379Z,97975.13
2023-01-17T10:09:25.230Z,97973.13
2023-01-17T10:12:18.630Z,97976.44
2023-01-17T10:15:07.051Z,97976.44
2023-01-17T10:17:52.976Z,97974.44
2023-01-17T10:20:44.060Z,97978.56
2023-01-17T10:23:39.322Z,97991.56
2023-01-17T10:26:12.914Z,97982.66
2023-01-17T10:28:50.503Z,97989.22
2023-01-17T10:31:24.905Z,97989.88
2023-01-17T10:33:55.510Z,97994.63
2023-01-17T10:36:28.507Z,97998.09
2023-01-17T10:39:01.572Z,97997.06
2023-01-17T10:41:34.298Z,97998.72
2023-01-17T10:44:15.948Z,97995.72
2023-01-17T10:46:52.751Z,97998.00
2023-01-17T10:49:25.646Z,98006.59
2023-01-17T10:52:12.749Z,98006.97
2023-01-17T10:55:04.940Z,97997.19
2023-01-17T10:57:43.270Z,98008.41
2023-01-17T11:00:45.355Z,98000.66
2023-01-17T11:03:15.357Z,97995.69
2023-01-17T11:05:44.301Z,98002.41
2023-01-17T11:08:15.778Z,98000.25
2023-01-17T11:10:46.432Z,98001.53
2023-01-17T11:13:30.399Z,97996.25
2023-01-17T11:16:02.408Z,97992.63
2023-01-17T11:18:33.910Z,97993.72
2023-01-17T11:21:15.573Z,98003.75
2023-01-17T11:23:47.771Z,98005.56
2023-01-17T11:26:27.611Z,97999.47
2023-01-17T11:29:16.188Z,98005.56
2023-01-17T11:31:44.250Z,98006.31
2023-01-17T11:34:18.989Z,98011.25
2023-01-17T11:36:47.230Z,98010.09
2023-01-17T11:39:29.705Z,98016.09
2023-01-17T11:41:58.355Z,98024.50
2023-01-17T11:44:30.256Z,98008.47
2023-01-17T11:47:16.946Z,98012.56
2023-01-17T11:49:48.179Z,98011.09
2023-01-17T11:52:25.176Z,98015.38
2023-01-17T11:54:56.646Z,97999.44
2023-01-17T11:57:28.840Z,98007.31
2023-01-17T12:00:16.562Z,98006.38
2023-01-17T12:03:15.122Z,98011.13
2023-01-17T12:05:59.787Z,98012.88
2023-01-17T12:08:51.411Z,98009.69
2023-01-17T12:11:37.149Z,98022.63
2023-01-17T12:14:22.407Z,98005.47
2023-01-17T12:17:10.913Z,98019.06
2023-01-17T12:20:05.564Z,98015.06
2023-01-17T12:23:00.884Z,98010.31
2023-01-17T12:25:54.502Z,98017.69
2023-01-17T12:29:20.533Z,98016.75
2023-01-17T12:32:05.918Z,98033.31
2023-01-17T12:34:40.944Z,98022.72
2023-01-17T12:37:21.024Z,98024.38
2023-01-17T12:39:58.122Z,98024.19
2023-01-17T12:42:36.093Z,98024.16
2023-01-17T12:45:11.094Z,98029.56
2023-01-17T12:47:46.541Z,98034.59
2023-01-17T12:50:27.255Z,98029.75
2023-01-17T12:53:05.952Z,98031.91
2023-01-17T12:55:42.954Z,98032.28
2023-01-17T12:58:19.836Z,98032.72
2023-01-17T13:00:57.190Z,98039.66
2023-01-17T13:03:42.407Z,98041.94
2023-01-17T13:06:25.981Z,98046.88
2023-01-17T13:09:01.580Z,98044.69
2023-01-17T13:11:38.983Z,98051.44
2023-01-17T13:14:11.135Z,98051.34
2023-01-17T13:16:46.297Z,98050.34
2023-01-17T13:19:30.413Z,98058.09
2023-01-17T13:22:02.529Z,98066.66
2023-01-17T13:24:41.467Z,98064.38
2023-01-17T13:27:58.285Z,98075.97
2023-01-17T13:30:49.081Z,98065.75
2023-01-17T13:33:47.993Z,98070.03
2023-01-17T13:36:50.446Z,98068.50
2023-01-17T13:39:50.303Z,98068.38
2023-01-17T13:42:30.243Z,98073.69
2023-01-17T13:44:58.927Z,98077.00
2023-01-17T13:47:42.592Z,98076.63
2023-01-17T13:50:55.468Z,98077.06
2023-01-17T13:53:48.828Z,98088.81
2023-01-17T13:56:33.218Z,98087.22
2023-01-17T13:59:30.208Z,98087.69
2023-01-17T14:01:58.645Z,98091.41
2023-01-17T14:05:10.156Z,98087.00
2023-01-17T14:07:48.456Z,98094.41
2023-01-17T14:10:34.136Z,98103.16
2023-01-17T14:13:04.127Z,98106.50
2023-01-17T14:15:47.741Z,98106.97
2023-01-17T14:18:34.901Z,98107.78
2023-01-17T14:21:12.567Z,98115.44
2023-01-17T14:24:15.965Z,98106.38
2023-01-17T14:26:57.386Z,98108.03
2023-01-17T14:29:49.280Z,98113.97
2023-01-17T14:32:20.771Z,98113.16
2023-01-17T14:34:51.983Z,98125.56
2023-01-17T14:37:46.869Z,98125.09
2023-01-17T14:40:21.991Z,98126.06
2023-01-17T14:43:00.158Z,98122.25
2023-01-17T14:45:31.127Z,98133.53
2023-01-17T14:48:02.414Z,98127.88
2023-01-17T14:50:37.612Z,98139.13
2023-01-17T14:53:20.136Z,98136.81
2023-01-17T14:55:56.493Z,98137.00
2023-01-17T14:58:28.845Z,98128.94
2023-01-17T15:01:01.346Z,98129.78
2023-01-17T15:03:34.569Z,98124.50
2023-01-17T15:06:12.546Z,98117.72
2023-01-17T15:08:41.015Z,98127.00
2023-01-17T15:11:19.367Z,98121.53
2023-01-17T15:13:51.611Z,98121.06
2023-01-17T15:16:24.047Z,98124.03
2023-01-17T15:18:53.483Z,98128.34
2023-01-17T15:21:25.616Z,98138.94
2023-01-17T15:23:58.119Z,98132.66
2023-01-17T15:26:30.725Z,98139.91
2023-01-17T15:29:06.934Z,98141.25
2023-01-17T15:31:45.434Z,98142.44
2023-01-17T15:34:29.372Z,98153.97
2023-01-17T15:37:01.061Z,98151.88
2023-01-17T15:39:32.883Z,98158.84
2023-01-17T15:42:06.931Z,98160.47
2023-01-17T15:44:48.204Z,98166.09
2023-01-17T15:47:30.684Z,98152.97
2023-01-17T15:50:00.584Z,98156.25
2023-01-17T15:52:32.866Z,98159.88
2023-01-17T15:55:15.159Z,98155.41
2023-01-17T15:57:48.456Z,98158.25
2023-01-17T16:00:26.182Z,98158.59
2023-01-17T16:02:57.053Z,98160.56
2023-01-17T16:05:41.709Z,98164.66
2023-01-17T16:08:33.935Z,98168.81
2023-01-17T16:11:06.010Z,98166.19
2023-01-17T16:13:38.503Z,98170.16
2023-01-17T16:16:17.722Z,98178.28
2023-01-17T16:18:47.634Z,98177.78
2023-01-17T16:21:25.800Z,98173.16
2023-01-17T16:23:54.692Z,98179.94
2023-01-17T16:26:23.559Z,98183.41
2023-01-17T16:28:53.306Z,98182.25
2023-01-17T16:31:21.678Z,98199.25
2023-01-17T16:33:51.628Z,98188.38
2023-01-17T16:36:21.337Z,98194.66
2023-01-17T16:38:52.130Z,98194.00
2023-01-17T16:41:21.328Z,98192.19
2023-01-17T16:44:00.922Z,98190.72
2023-01-17T16:46:30.455Z,98194.19
2023-01-17T16:49:01.683Z,98196.81
2023-01-17T16:51:29.787Z,98190.75
2023-01-17T16:53:58.126Z,98194.22
2023-01-17T16:56:26.190Z,98195.69
2023-01-17T16:58:56.219Z,98199.34
2023-01-17T17:01:25.227Z,98201.31
2023-01-17T17:03:53.443Z,98201.97
2023-01-17T17:06:21.676Z,98203.31
2023-01-17T17:08:49.857Z,98210.56
2023-01-17T17:11:20.345Z,98211.41
2023-01-17T17:13:51.021Z,98219.66
2023-01-17T17:16:26.699Z,98215.84
2023-01-17T17:19:01.647Z,98229.34
2023-01-17T17:21:31.729Z,98226.72
2023-01-17T17:24:01.642Z,98223.25
2023-01-17T17:26:34.378Z,98225.38
2023-01-17T17:29:03.810Z,98232.16
2023-01-17T17:31:33.361Z,98222.09
2023-01-17T17:34:03.498Z,98225.25
2023-01-17T17:36:32.298Z,98217.81
2023-01-17T17:39:03.530Z,98222.44
2023-01-17T17:41:34.566Z,98223.25
2023-01-17T17:44:04.717Z,98230.66
2023-01-17T17:46:34.935Z,98226.69
2023-01-17T17:49:03.439Z,98234.59
2023-01-17T17:51:35.241Z,98238.25
2023-01-17T17:54:07.146Z,98236.25
2023-01-17T17:56:36.815Z,98236.59
2023-01-17T17:59:07.408Z,98243.19
2023-01-17T18:01:38.153Z,98236.59
2023-01-17T18:04:07.617Z,98250.25
2023-01-17T18:06:38.509Z,98238.56
2023-01-17T18:09:07.998Z,98247.28
2023-01-17T18:11:38.326Z,98265.22
2023-01-17T18:14:09.463Z,98264.72
2023-01-17T18:16:42.152Z,98264.88
2023-01-17T18:19:15.496Z,98266.84
2023-01-17T18:21:43.950Z,98260.91
2023-01-17T18:24:15.009Z,98261.09
2023-01-17T18:26:46.519Z,98261.59
2023-01-17T18:29:17.736Z,98272.44
2023-01-17T18:31:50.067Z,98263.34
2023-01-17T18:34:21.188Z,98265.66
2023-01-17T18:36:49.599Z,98272.38
2023-01-17T18:39:20.607Z,98265.78
2023-01-17T18:41:49.396Z,98260.69
2023-01-17T18:44:21.806Z,98267.06
2023-01-17T18:46:53.543Z,98267.25
2023-01-17T18:49:22.014Z,98266.75
2023-01-17T18:51:51.746Z,98273.47
2023-01-17T18:54:21.026Z,98282.81
2023-01-17T18:56:49.685Z,98279.84
2023-01-17T18:59:19.614Z,98280.75
2023-01-17T19:01:48.349Z,98288.88
2023-01-17T19:04:18.865Z,98284.28
2023-01-17T19:06:49.079Z,98289.03
2023-01-17T19:09:17.974Z,98304.16
2023-01-17T19:11:47.483Z,98303.53
2023-01-17T19:14:15.841Z,98310.75
2023-01-17T19:16:44.924Z,98313.03
2023-01-17T19:19:16.764Z,98303.47
2023-01-17T19:21:45.292Z,98314.66
2023-01-17T19:24:14.280Z,98306.09
2023-01-17T19:26:42.745Z,98306.03
2023-01-17T19:29:13.119Z,98304.69
2023-01-17T19:31:42.902Z,98308.28
2023-01-17T19:34:13.691Z,98303.34
2023-01-17T19:36:43.765Z,98303.44
2023-01-17T19:39:12.592Z,98305.41
2023-01-17T19:41:45.545Z,98305.56
2023-01-17T19:44:15.496Z,98301.56
2023-01-17T19:46:44.209Z,98306.53
2023-01-17T19:49:12.606Z,98313.13
2023-01-17T19:51:42.027Z,98308.50
2023-01-17T19:54:10.587Z,98307.16
2023-01-17T19:56:38.700Z,98309.78
2023-01-17T19:59:07.071Z,98317.66
2023-01-17T20:01:36.185Z,98320.75
2023-01-17T20:04:04.841Z,98330.16
2023-01-17T20:06:36.958Z,98332.09
2023-01-17T20:09:07.987Z,98341.00
2023-01-17T20:11:36.157Z,98339.13
2023-01-17T20:14:06.129Z,98340.09
2023-01-17T20:16:37.363Z,98351.81
2023-01-17T20:19:06.041Z,98350.47
2023-01-17T20:21:34.320Z,98342.59
2023-01-17T20:24:04.144Z,98348.19
2023-01-17T20:26:36.607Z,98346.03
2023-01-17T20:29:10.443Z,98343.25
2023-01-17T20:31:39.862Z,98345.34
2023-01-17T20:34:11.441Z,98346.38
2023-01-17T20:36:41.522Z,98349.00
2023-01-17T20:39:12.093Z,98344.50
2023-01-17T20:41:44.748Z,98351.81
2023-01-17T20:44:16.224Z,98352.88
2023-01-17T20:46:45.425Z,98357.91
2023-01-17T20:49:18.719Z,98364.44
2023-01-17T20:51:48.088Z,98352.41
2023-01-17T20:54:18.939Z,98368.34
2023-01-17T20:56:48.945Z,98369.19
2023-01-17T20:59:20.116Z,98367.75
2023-01-17T21:01:48.544Z,98374.13
2023-01-17T21:04:17.908Z,98370.28
2023-01-17T21:06:46.722Z,98378.66
2023-01-17T21:09:17.098Z,98371.38
2023-01-17T21:11:45.225Z,98368.19
2023-01-17T21:14:14.896Z,98366.97
2023-01-17T21:16:43.227Z,98368.19
2023-01-17T21:19:14.874Z,98369.59
2023-01-17T21:21:43.041Z,98374.19
2023-01-17T21:24:16.154Z,98373.16
2023-01-17T21:26:45.607Z,98365.63
2023-01-17T21:29:16.028Z,98376.75
2023-01-17T21:31:45.159Z,98375.69
2023-01-17T21:34:14.622Z,98367.44
2023-01-17T21:36:44.117Z,98374.63
2023-01-17T21:39:15.922Z,98370.00
2023-01-17T21:41:47.754Z,98377.34
2023-01-17T21:44:21.175Z,98383.66
2023-01-17T21:46:54.138Z,98384.56
2023-01-17T21:49:24.202Z,98387.81
2023-01-17T21:52:09.878Z,98394.75
2023-01-17T21:54:55.959Z,98388.84
2023-01-17T21:57:41.608Z,98396.41
2023-01-17T22:00:15.276Z,98402.28
2023-01-17T22:02:44.040Z,98406.16
2023-01-17T22:05:12.663Z,98405.50
2023-01-17T22:08:01.462Z,98419.38
2023-01-17T22:10:29.634Z,98425.94
2023-01-17T22:12:57.787Z,98432.06
2023-01-17T22:15:27.757Z,98436.50
2023-01-17T22:17:56.285Z,98439.25
2023-01-17T22:20:24.563Z,98441.50
2023-01-17T22:22:52.634Z,98440.63
2023-01-17T22:25:21.021Z,98434.81
2023-01-17T22:27:49.439Z,98439.66
2023-01-17T22:30:19.417Z,98437.59
2023-01-17T22:32:48.848Z,98445.09
2023-01-17T22:35:17.067Z,98450.63
2023-01-17T22:37:45.215Z,98448.56
2023-01-17T22:40:14.260Z,98454.78
2023-01-17T22:42:42.462Z,98464.88
2023-01-17T22:45:11.774Z,98464.88
2023-01-17T22:47:40.195Z,98466.38
2023-01-17T22:50:12.211Z,98464.13
2023-01-17T22:52:40.370Z,98467.47
2023-01-17T22:55:09.308Z,98454.91
2023-01-17T22:57:37.358Z,98466.75
2023-01-17T23:00:14.356Z,98460.56
2023-01-17T23:02:42.886Z,98459.28
2023-01-17T23:05:12.627Z,98455.00
2023-01-17T23:07:44.092Z,98462.22
2023-01-17T23:10:34.903Z,98459.59
2023-01-17T23:13:02.983Z,98468.31
2023-01-17T23:15:48.424Z,98467.38
2023-01-17T23:18:33.917Z,98471.00
2023-01-17T23:21:03.327Z,98479.72
2023-01-17T23:23:32.812Z,98478.75
2023-01-17T23:26:01.798Z,98471.69
2023-01-17T23:28:28.884Z,98474.47
2023-01-17T23:31:04.830Z,98476.97
2023-01-17T23:33:33.217Z,98473.13
2023-01-17T23:36:01.459Z,98477.09
2023-01-17T23:38:31.143Z,98475.03
2023-01-17T23:41:28.887Z,98470.75
2023-01-17T23:43:59.437Z,98476.13
2023-01-17T23:46:29.950Z,98474.75
2023-01-17T23:48:58.096Z,98474.50
2023-01-17T23:51:26.160Z,98479.19
2023-01-17T23:54:05.098Z,98473.53
2023-01-17T23:56:33.159Z,98474.19
2023-01-17T23:59:01.970Z,98471.16
